Axtell, Kansas
Current Conditions -  °F | °C
As of 7:15 PM on Thursday 27 Nov 2014 (Local Time) from KMYZ Reporting Station
Clear Clear  
Wind Chill: 23°   Ceiling: Unl
Heat Index: 32°   Visibility: 10mi
Dew Point: 21°   Wind: 12mph
Humidity: 64%   Direction: 150°SSE
Pressure: 30.23"   Gusts: 16mph
Location:  39.87°N, 96.26°W
Report Text: KMYZ 280115Z AUTO 15010G14KT 10SM CLR 00/M06 A3023 RMK AO2
Loading
Personal Weather Stations






























Interactive Weather Map New forecast layout! Learn more

10-Day Weather Forecast

Advertisements
Track Severe Weather on mobile